sensor_id;sensor_type;location;lat;lon;timestamp;pressure;altitude;pressure_sealevel;temperature;humidity
40918;BME280;26644;50.248;19.032;2024-01-30T00:01:39;99907.91;;;0.94;69.81
40918;BME280;26644;50.248;19.032;2024-01-30T00:04:44;99910.50;;;0.88;69.82
40918;BME280;26644;50.248;19.032;2024-01-30T00:07:53;99897.03;;;0.80;70.20
40918;BME280;26644;50.248;19.032;2024-01-30T00:10:58;99883.97;;;0.60;70.51
40918;BME280;26644;50.248;19.032;2024-01-30T00:14:03;99902.50;;;0.71;70.49
40918;BME280;26644;50.248;19.032;2024-01-30T00:17:08;99889.88;;;0.64;70.69
40918;BME280;26644;50.248;19.032;2024-01-30T00:20:13;99892.41;;;0.65;70.42
40918;BME280;26644;50.248;19.032;2024-01-30T00:23:21;99886.50;;;0.62;70.35
40918;BME280;26644;50.248;19.032;2024-01-30T00:26:25;99896.09;;;0.64;70.39
40918;BME280;26644;50.248;19.032;2024-01-30T00:29:30;99891.91;;;0.62;70.24
40918;BME280;26644;50.248;19.032;2024-01-30T00:32:35;99900.06;;;0.53;70.33
40918;BME280;26644;50.248;19.032;2024-01-30T00:35:40;99898.56;;;0.51;70.80
40918;BME280;26644;50.248;19.032;2024-01-30T00:38:47;99896.59;;;0.45;70.84
40918;BME280;26644;50.248;19.032;2024-01-30T00:41:52;99891.50;;;0.41;70.93
40918;BME280;26644;50.248;19.032;2024-01-30T00:44:57;99894.22;;;0.41;71.16
40918;BME280;26644;50.248;19.032;2024-01-30T00:48:03;99896.59;;;0.45;71.01
40918;BME280;26644;50.248;19.032;2024-01-30T00:51:08;99890.13;;;0.46;70.63
40918;BME280;26644;50.248;19.032;2024-01-30T00:54:16;99891.97;;;0.53;70.63
40918;BME280;26644;50.248;19.032;2024-01-30T00:57:20;99892.75;;;0.62;70.36
40918;BME280;26644;50.248;19.032;2024-01-30T01:00:25;99898.47;;;0.67;69.71
40918;BME280;26644;50.248;19.032;2024-01-30T01:03:30;99883.09;;;0.68;69.47
40918;BME280;26644;50.248;19.032;2024-01-30T01:06:35;99886.78;;;0.75;69.42
40918;BME280;26644;50.248;19.032;2024-01-30T01:09:42;99886.59;;;0.76;69.44
40918;BME280;26644;50.248;19.032;2024-01-30T01:12:48;99880.31;;;0.76;69.09
40918;BME280;26644;50.248;19.032;2024-01-30T01:15:52;99868.84;;;0.74;69.49
40918;BME280;26644;50.248;19.032;2024-01-30T01:18:58;99869.50;;;0.76;69.10
40918;BME280;26644;50.248;19.032;2024-01-30T01:22:02;99872.22;;;0.76;69.08
40918;BME280;26644;50.248;19.032;2024-01-30T01:25:11;99866.97;;;0.74;69.07
40918;BME280;26644;50.248;19.032;2024-01-30T01:28:15;99865.28;;;0.73;69.22
40918;BME280;26644;50.248;19.032;2024-01-30T01:31:20;99863.63;;;0.72;69.18
40918;BME280;26644;50.248;19.032;2024-01-30T01:34:25;99859.06;;;0.73;68.98
40918;BME280;26644;50.248;19.032;2024-01-30T01:37:31;99856.16;;;0.74;68.94
40918;BME280;26644;50.248;19.032;2024-01-30T01:40:38;99852.63;;;0.74;68.86
40918;BME280;26644;50.248;19.032;2024-01-30T01:43:45;99856.16;;;0.74;68.61
40918;BME280;26644;50.248;19.032;2024-01-30T01:46:51;99854.13;;;0.76;68.90
40918;BME280;26644;50.248;19.032;2024-01-30T01:50:01;99851.91;;;0.80;68.43
40918;BME280;26644;50.248;19.032;2024-01-30T01:53:07;99849.69;;;0.84;68.64
40918;BME280;26644;50.248;19.032;2024-01-30T01:56:16;99855.75;;;0.86;68.13
40918;BME280;26644;50.248;19.032;2024-01-30T01:59:22;99855.56;;;0.87;68.33
40918;BME280;26644;50.248;19.032;2024-01-30T02:02:30;99854.91;;;0.85;68.33
40918;BME280;26644;50.248;19.032;2024-01-30T02:05:39;99854.19;;;0.91;68.00
40918;BME280;26644;50.248;19.032;2024-01-30T02:08:46;99850.09;;;0.96;67.91
40918;BME280;26644;50.248;19.032;2024-01-30T02:11:53;99852.41;;;0.99;67.61
40918;BME280;26644;50.248;19.032;2024-01-30T02:14:59;99852.25;;;1.00;67.83
40918;BME280;26644;50.248;19.032;2024-01-30T02:18:06;99840.59;;;1.00;67.45
40918;BME280;26644;50.248;19.032;2024-01-30T02:21:14;99850.19;;;1.02;67.33
40918;BME280;26644;50.248;19.032;2024-01-30T02:24:19;99833.69;;;0.97;67.60
40918;BME280;26644;50.248;19.032;2024-01-30T02:27:24;99840.59;;;1.00;67.70
40918;BME280;26644;50.248;19.032;2024-01-30T02:30:28;99835.75;;;0.95;67.34
40918;BME280;26644;50.248;19.032;2024-01-30T02:33:33;99844.69;;;0.96;67.20
40918;BME280;26644;50.248;19.032;2024-01-30T02:36:42;99836.28;;;0.90;67.69
40918;BME280;26644;50.248;19.032;2024-01-30T02:39:47;99843.94;;;0.87;67.43
40918;BME280;26644;50.248;19.032;2024-01-30T02:42:52;99840.06;;;0.81;67.59
40918;BME280;26644;50.248;19.032;2024-01-30T02:45:56;99829.56;;;0.63;67.94
40918;BME280;26644;50.248;19.032;2024-01-30T02:49:02;99842.03;;;0.64;67.82
40918;BME280;26644;50.248;19.032;2024-01-30T02:52:09;99835.13;;;0.62;68.15
40918;BME280;26644;50.248;19.032;2024-01-30T02:55:15;99834.00;;;0.56;68.07
40918;BME280;26644;50.248;19.032;2024-01-30T02:58:20;99840.25;;;0.56;68.52
40918;BME280;26644;50.248;19.032;2024-01-30T03:01:25;99843.13;;;0.55;68.37
40918;BME280;26644;50.248;19.032;2024-01-30T03:04:30;99837.72;;;0.55;68.39
40918;BME280;26644;50.248;19.032;2024-01-30T03:07:38;99841.47;;;0.54;68.38
40918;BME280;26644;50.248;19.032;2024-01-30T03:10:42;99836.06;;;0.54;68.51
40918;BME280;26644;50.248;19.032;2024-01-30T03:13:47;99838.75;;;0.54;68.71
40918;BME280;26644;50.248;19.032;2024-01-30T03:16:52;99840.59;;;0.53;68.55
40918;BME280;26644;50.248;19.032;2024-01-30T03:19:58;99833.88;;;0.49;68.78
40918;BME280;26644;50.248;19.032;2024-01-30T03:23:05;99824.25;;;0.47;68.84
40918;BME280;26644;50.248;19.032;2024-01-30T03:26:10;99824.81;;;0.42;68.86
40918;BME280;26644;50.248;19.032;2024-01-30T03:29:15;99820.06;;;0.44;69.25
40918;BME280;26644;50.248;19.032;2024-01-30T03:32:21;99823.44;;;0.46;68.79
40918;BME280;26644;50.248;19.032;2024-01-30T03:35:25;99826.47;;;0.43;68.67
40918;BME280;26644;50.248;19.032;2024-01-30T03:38:33;99822.75;;;0.44;68.78
40918;BME280;26644;50.248;19.032;2024-01-30T03:41:37;99821.56;;;0.47;68.71
40918;BME280;26644;50.248;19.032;2024-01-30T03:44:42;99821.56;;;0.47;68.68
40918;BME280;26644;50.248;19.032;2024-01-30T03:47:47;99826.78;;;0.48;68.48
40918;BME280;26644;50.248;19.032;2024-01-30T03:50:52;99828.84;;;0.46;68.63
40918;BME280;26644;50.248;19.032;2024-01-30T03:53:59;99825.84;;;0.41;68.56
40918;BME280;26644;50.248;19.032;2024-01-30T03:57:04;99820.44;;;0.41;69.13
40918;BME280;26644;50.248;19.032;2024-01-30T04:00:10;99818.25;;;0.36;68.69
40918;BME280;26644;50.248;19.032;2024-01-30T04:03:16;99830.41;;;0.40;68.88
40918;BME280;26644;50.248;19.032;2024-01-30T04:06:21;99831.41;;;0.39;69.03
40918;BME280;26644;50.248;19.032;2024-01-30T04:09:29;99824.31;;;0.38;69.19
40918;BME280;26644;50.248;19.032;2024-01-30T04:12:33;99822.63;;;0.37;69.17
40918;BME280;26644;50.248;19.032;2024-01-30T04:15:39;99825.34;;;0.37;68.78
40918;BME280;26644;50.248;19.032;2024-01-30T04:18:43;99820.78;;;0.38;69.00
40918;BME280;26644;50.248;19.032;2024-01-30T04:21:48;99802.53;;;0.40;69.23
40918;BME280;26644;50.248;19.032;2024-01-30T04:24:55;99810.44;;;0.41;69.35
40918;BME280;26644;50.248;19.032;2024-01-30T04:28:01;99813.94;;;0.50;69.24
40918;BME280;26644;50.248;19.032;2024-01-30T04:31:05;99809.84;;;0.54;69.05
40918;BME280;26644;50.248;19.032;2024-01-30T04:34:10;99816.78;;;0.57;68.90
40918;BME280;26644;50.248;19.032;2024-01-30T04:37:15;99813.88;;;0.58;68.63
40918;BME280;26644;50.248;19.032;2024-01-30T04:40:23;99816.22;;;0.62;68.95
40918;BME280;26644;50.248;19.032;2024-01-30T04:43:27;99806.91;;;0.64;68.80
40918;BME280;26644;50.248;19.032;2024-01-30T04:46:32;99825.47;;;0.67;68.66
40918;BME280;26644;50.248;19.032;2024-01-30T04:49:38;99815.50;;;0.68;68.66
40918;BME280;26644;50.248;19.032;2024-01-30T04:52:44;99802.53;;;0.63;68.23
40918;BME280;26644;50.248;19.032;2024-01-30T04:55:51;99817.97;;;0.77;67.90
40918;BME280;26644;50.248;19.032;2024-01-30T04:58:56;99815.91;;;0.80;68.05
40918;BME280;26644;50.248;19.032;2024-01-30T05:02:01;99809.50;;;0.81;67.72
40918;BME280;26644;50.248;19.032;2024-01-30T05:05:07;99812.69;;;0.84;67.77
40918;BME280;26644;50.248;19.032;2024-01-30T05:08:11;99812.50;;;0.86;67.73
40918;BME280;26644;50.248;19.032;2024-01-30T05:11:19;99817.53;;;0.89;67.37
40918;BME280;26644;50.248;19.032;2024-01-30T05:14:23;99808.41;;;0.90;67.50
40918;BME280;26644;50.248;19.032;2024-01-30T05:17:29;99814.63;;;0.90;67.43
40918;BME280;26644;50.248;19.032;2024-01-30T05:20:34;99818.84;;;0.93;66.89
40918;BME280;26644;50.248;19.032;2024-01-30T05:23:39;99819.13;;;0.98;67.25
40918;BME280;26644;50.248;19.032;2024-01-30T05:26:46;99814.56;;;0.99;66.91
40918;BME280;26644;50.248;19.032;2024-01-30T05:29:53;99826.88;;;1.01;66.55
40918;BME280;26644;50.248;19.032;2024-01-30T05:32:57;99819.81;;;1.00;66.53
40918;BME280;26644;50.248;19.032;2024-01-30T05:36:02;99824.34;;;1.00;66.85
40918;BME280;26644;50.248;19.032;2024-01-30T05:39:07;99828.94;;;0.99;66.65
40918;BME280;26644;50.248;19.032;2024-01-30T05:42:15;99827.06;;;1.00;66.85
40918;BME280;26644;50.248;19.032;2024-01-30T05:45:19;99820.34;;;0.96;66.69
40918;BME280;26644;50.248;19.032;2024-01-30T05:48:25;99827.91;;;1.00;66.53
40918;BME280;26644;50.248;19.032;2024-01-30T05:51:29;99818.50;;;0.96;66.60
40918;BME280;26644;50.248;19.032;2024-01-30T05:54:34;99827.72;;;1.02;66.40
40918;BME280;26644;50.248;19.032;2024-01-30T05:57:41;99833.78;;;1.04;66.08
40918;BME280;26644;50.248;19.032;2024-01-30T06:00:47;99825.22;;;1.00;66.21
40918;BME280;26644;50.248;19.032;2024-01-30T06:03:51;99832.94;;;1.03;66.31
40918;BME280;26644;50.248;19.032;2024-01-30T06:06:57;99826.72;;;1.03;66.56
40918;BME280;26644;50.248;19.032;2024-01-30T06:10:03;99823.16;;;1.02;66.29
40918;BME280;26644;50.248;19.032;2024-01-30T06:13:13;99831.94;;;1.04;66.08
40918;BME280;26644;50.248;19.032;2024-01-30T06:16:18;99823.34;;;1.01;66.45
40918;BME280;26644;50.248;19.032;2024-01-30T06:19:24;99824.34;;;1.00;66.42
40918;BME280;26644;50.248;19.032;2024-01-30T06:22:29;99831.28;;;1.02;66.33
40918;BME280;26644;50.248;19.032;2024-01-30T06:25:34;99827.53;;;1.03;66.00
40918;BME280;26644;50.248;19.032;2024-01-30T06:28:41;99833.97;;;1.02;65.80
40918;BME280;26644;50.248;19.032;2024-01-30T06:31:46;99832.28;;;1.01;66.20
40918;BME280;26644;50.248;19.032;2024-01-30T06:34:50;99828.94;;;0.99;66.29
40918;BME280;26644;50.248;19.032;2024-01-30T06:37:56;99830.63;;;1.00;66.17
40918;BME280;26644;50.248;19.032;2024-01-30T06:41:00;99834.88;;;0.94;66.29
40918;BME280;26644;50.248;19.032;2024-01-30T06:44:08;99825.94;;;0.94;66.16
40918;BME280;26644;50.248;19.032;2024-01-30T06:47:13;99818.44;;;0.81;66.56
40918;BME280;26644;50.248;19.032;2024-01-30T06:50:18;99825.53;;;0.82;66.76
40918;BME280;26644;50.248;19.032;2024-01-30T06:53:22;99832.91;;;0.88;66.70
40918;BME280;26644;50.248;19.032;2024-01-30T06:56:28;99832.75;;;0.90;66.74
40918;BME280;26644;50.248;19.032;2024-01-30T06:59:36;99830.53;;;0.93;66.33
40918;BME280;26644;50.248;19.032;2024-01-30T07:02:45;99832.19;;;0.94;66.37
40918;BME280;26644;50.248;19.032;2024-01-30T07:05:50;99836.88;;;1.01;66.60
40918;BME280;26644;50.248;19.032;2024-01-30T07:08:55;99836.69;;;1.02;66.46
40918;BME280;26644;50.248;19.032;2024-01-30T07:11:59;99838.84;;;1.07;66.20
40918;BME280;26644;50.248;19.032;2024-01-30T07:15:08;99836.06;;;1.15;66.13
40918;BME280;26644;50.248;19.032;2024-01-30T07:18:16;99845.78;;;1.24;66.03
40918;BME280;26644;50.248;19.032;2024-01-30T07:21:21;99846.72;;;1.32;65.76
40918;BME280;26644;50.248;19.032;2024-01-30T07:24:29;99847.19;;;1.35;65.29
40918;BME280;26644;50.248;19.032;2024-01-30T07:27:34;99856.72;;;1.46;65.10
40918;BME280;26644;50.248;19.032;2024-01-30T07:30:41;99851.06;;;1.56;64.99
40918;BME280;26644;50.248;19.032;2024-01-30T07:33:47;99843.84;;;1.63;64.99
40918;BME280;26644;50.248;19.032;2024-01-30T07:36:51;99844.97;;;1.69;65.08
40918;BME280;26644;50.248;19.032;2024-01-30T07:39:56;99849.06;;;1.80;64.41
40918;BME280;26644;50.248;19.032;2024-01-30T07:43:01;99843.78;;;1.86;64.33
40918;BME280;26644;50.248;19.032;2024-01-30T07:46:09;99847.41;;;1.93;64.31
40918;BME280;26644;50.248;19.032;2024-01-30T07:49:13;99844.38;;;2.03;63.63
40918;BME280;26644;50.248;19.032;2024-01-30T07:52:19;99843.25;;;2.13;63.16
40918;BME280;26644;50.248;19.032;2024-01-30T07:55:23;99848.06;;;2.32;63.16
40918;BME280;26644;50.248;19.032;2024-01-30T07:58:30;99840.94;;;2.89;62.92
40918;BME280;26644;50.248;19.032;2024-01-30T08:01:37;99841.03;;;3.53;61.07
40918;BME280;26644;50.248;19.032;2024-01-30T08:04:42;99852.97;;;4.49;59.18
40918;BME280;26644;50.248;19.032;2024-01-30T08:07:50;99858.09;;;5.79;57.03
40918;BME280;26644;50.248;19.032;2024-01-30T08:10:55;99859.94;;;7.21;54.47
40918;BME280;26644;50.248;19.032;2024-01-30T08:13:59;99869.78;;;8.77;50.83
40918;BME280;26644;50.248;19.032;2024-01-30T08:17:07;99867.03;;;10.38;46.52
40918;BME280;26644;50.248;19.032;2024-01-30T08:20:11;99883.66;;;12.03;43.71
40918;BME280;26644;50.248;19.032;2024-01-30T08:23:16;99887.69;;;13.71;40.09
40918;BME280;26644;50.248;19.032;2024-01-30T08:26:20;99890.84;;;15.22;36.89
40918;BME280;26644;50.248;19.032;2024-01-30T08:29:25;99894.84;;;16.64;34.63
40918;BME280;26644;50.248;19.032;2024-01-30T08:32:32;99891.84;;;17.80;32.54
40918;BME280;26644;50.248;19.032;2024-01-30T08:35:38;99892.59;;;19.06;30.45
40918;BME280;26644;50.248;19.032;2024-01-30T08:38:42;99895.78;;;20.18;29.10
40918;BME280;26644;50.248;19.032;2024-01-30T08:41:47;99906.47;;;21.22;27.75
40918;BME280;26644;50.248;19.032;2024-01-30T08:44:51;99912.91;;;21.90;26.40
40918;BME280;26644;50.248;19.032;2024-01-30T08:48:00;99908.63;;;22.56;24.68
40918;BME280;26644;50.248;19.032;2024-01-30T08:51:04;99914.56;;;22.54;23.49
40918;BME280;26644;50.248;19.032;2024-01-30T08:54:10;99910.19;;;22.39;24.06
40918;BME280;26644;50.248;19.032;2024-01-30T08:57:15;99910.50;;;22.38;23.73
40918;BME280;26644;50.248;19.032;2024-01-30T09:00:20;99907.81;;;22.64;22.81
40918;BME280;26644;50.248;19.032;2024-01-30T09:03:27;99910.91;;;22.54;22.62
40918;BME280;26644;50.248;19.032;2024-01-30T09:06:32;99908.97;;;22.54;22.69
40918;BME280;26644;50.248;19.032;2024-01-30T09:09:37;99912.56;;;22.55;22.63
40918;BME280;26644;50.248;19.032;2024-01-30T09:12:43;99907.81;;;22.55;22.45
40918;BME280;26644;50.248;19.032;2024-01-30T09:15:47;99909.28;;;22.62;22.30
40918;BME280;26644;50.248;19.032;2024-01-30T09:18:55;99907.22;;;22.45;22.30
40918;BME280;26644;50.248;19.032;2024-01-30T09:21:59;99912.81;;;22.45;22.32
40918;BME280;26644;50.248;19.032;2024-01-30T09:25:05;99904.41;;;22.67;22.33
40918;BME280;26644;50.248;19.032;2024-01-30T09:28:09;99913.66;;;22.94;22.07
40918;BME280;26644;50.248;19.032;2024-01-30T09:31:15;99907.63;;;23.45;22.07
40918;BME280;26644;50.248;19.032;2024-01-30T09:34:21;99903.50;;;23.68;20.91
40918;BME280;26644;50.248;19.032;2024-01-30T09:37:26;99910.53;;;24.01;21.13
40918;BME280;26644;50.248;19.032;2024-01-30T09:40:31;99902.09;;;24.10;20.94
40918;BME280;26644;50.248;19.032;2024-01-30T09:43:38;99905.75;;;24.01;20.61
40918;BME280;26644;50.248;19.032;2024-01-30T09:46:42;99896.91;;;23.47;20.84
40918;BME280;26644;50.248;19.032;2024-01-30T09:49:56;99900.50;;;23.03;20.97
40918;BME280;26644;50.248;19.032;2024-01-30T09:53:04;99897.94;;;22.67;21.80
40918;BME280;26644;50.248;19.032;2024-01-30T09:56:12;99900.69;;;21.64;22.24
40918;BME280;26644;50.248;19.032;2024-01-30T09:59:17;99876.94;;;20.09;23.50
40918;BME280;26644;50.248;19.032;2024-01-30T10:02:23;99877.56;;;18.16;24.75
40918;BME280;26644;50.248;19.032;2024-01-30T10:05:31;99860.06;;;16.11;26.78
40918;BME280;26644;50.248;19.032;2024-01-30T10:08:39;99850.50;;;14.32;29.29
40918;BME280;26644;50.248;19.032;2024-01-30T10:11:43;99848.88;;;12.86;30.92
40918;BME280;26644;50.248;19.032;2024-01-30T10:14:48;99849.72;;;11.81;32.93
40918;BME280;26644;50.248;19.032;2024-01-30T10:17:52;99845.72;;;10.86;34.67
40918;BME280;26644;50.248;19.032;2024-01-30T10:21:00;99836.66;;;10.04;36.38
40918;BME280;26644;50.248;19.032;2024-01-30T10:24:04;99821.59;;;9.31;37.37
40918;BME280;26644;50.248;19.032;2024-01-30T10:27:10;99831.13;;;8.86;39.14
40918;BME280;26644;50.248;19.032;2024-01-30T10:30:15;99819.22;;;8.50;39.91
40918;BME280;26644;50.248;19.032;2024-01-30T10:33:20;99806.94;;;8.22;40.59
40918;BME280;26644;50.248;19.032;2024-01-30T10:36:28;99807.56;;;8.05;41.08
40918;BME280;26644;50.248;19.032;2024-01-30T10:39:38;99798.22;;;7.94;41.85
40918;BME280;26644;50.248;19.032;2024-01-30T10:42:43;99801.75;;;7.83;41.99
40918;BME280;26644;50.248;19.032;2024-01-30T10:45:53;99794.66;;;7.75;42.22
40918;BME280;26644;50.248;19.032;2024-01-30T10:49:01;99794.13;;;7.67;42.13
40918;BME280;26644;50.248;19.032;2024-01-30T10:52:13;99798.84;;;7.59;42.50
40918;BME280;26644;50.248;19.032;2024-01-30T10:55:19;99785.47;;;7.51;42.70
40918;BME280;26644;50.248;19.032;2024-01-30T10:58:26;99777.53;;;7.43;42.85
40918;BME280;26644;50.248;19.032;2024-01-30T11:01:31;99778.41;;;7.43;43.04
40918;BME280;26644;50.248;19.032;2024-01-30T11:04:36;99776.25;;;7.45;43.20
40918;BME280;26644;50.248;19.032;2024-01-30T11:07:43;99774.16;;;7.48;43.48
40918;BME280;26644;50.248;19.032;2024-01-30T11:10:48;99772.06;;;7.43;43.17
40918;BME280;26644;50.248;19.032;2024-01-30T11:13:53;99774.53;;;7.51;43.39
40918;BME280;26644;50.248;19.032;2024-01-30T11:16:58;99773.44;;;7.52;43.76
40918;BME280;26644;50.248;19.032;2024-01-30T11:20:05;99771.81;;;7.51;43.25
40918;BME280;26644;50.248;19.032;2024-01-30T11:23:16;99772.88;;;7.50;43.80
40918;BME280;26644;50.248;19.032;2024-01-30T11:26:24;99770.13;;;7.50;43.27
40918;BME280;26644;50.248;19.032;2024-01-30T11:29:35;99769.06;;;7.51;43.35
40918;BME280;26644;50.248;19.032;2024-01-30T11:32:39;99768.22;;;7.51;43.56
40918;BME280;26644;50.248;19.032;2024-01-30T11:35:45;99767.56;;;7.55;43.60
40918;BME280;26644;50.248;19.032;2024-01-30T11:38:51;99766.84;;;7.60;42.94
40918;BME280;26644;50.248;19.032;2024-01-30T11:41:57;99761.78;;;7.64;43.27
40918;BME280;26644;50.248;19.032;2024-01-30T11:45:05;99761.25;;;7.73;43.48
40918;BME280;26644;50.248;19.032;2024-01-30T11:48:11;99755.34;;;7.76;43.14
40918;BME280;26644;50.248;19.032;2024-01-30T11:51:16;99745.84;;;7.79;43.11
40918;BME280;26644;50.248;19.032;2024-01-30T11:54:24;99732.38;;;7.77;42.95
40918;BME280;26644;50.248;19.032;2024-01-30T11:57:29;99734.19;;;7.84;42.84
40918;BME280;26644;50.248;19.032;2024-01-30T12:00:34;99719.78;;;7.76;42.74
40918;BME280;26644;50.248;19.032;2024-01-30T12:03:38;99731.06;;;7.80;43.16
40918;BME280;26644;50.248;19.032;2024-01-30T12:06:43;99721.00;;;7.81;43.34
40918;BME280;26644;50.248;19.032;2024-01-30T12:09:54;99717.41;;;7.80;42.65
40918;BME280;26644;50.248;19.032;2024-01-30T12:13:01;99710.50;;;7.77;43.05
40918;BME280;26644;50.248;19.032;2024-01-30T12:16:06;99704.22;;;7.77;42.89
40918;BME280;26644;50.248;19.032;2024-01-30T12:19:21;99698.97;;;7.75;43.31
40918;BME280;26644;50.248;19.032;2024-01-30T12:22:26;99701.94;;;7.74;43.64
40918;BME280;26644;50.248;19.032;2024-01-30T12:25:33;99704.69;;;7.74;43.46
40918;BME280;26644;50.248;19.032;2024-01-30T12:28:47;99695.38;;;7.75;43.59
40918;BME280;26644;50.248;19.032;2024-01-30T12:31:53;99692.66;;;7.75;43.56
40918;BME280;26644;50.248;19.032;2024-01-30T12:34:58;99686.97;;;7.76;43.92
40918;BME280;26644;50.248;19.032;2024-01-30T12:38:04;99691.75;;;7.81;43.61
40918;BME280;26644;50.248;19.032;2024-01-30T12:41:11;99689.38;;;7.85;44.02
40918;BME280;26644;50.248;19.032;2024-01-30T12:44:16;99682.88;;;7.86;43.82
40918;BME280;26644;50.248;19.032;2024-01-30T12:47:21;99687.25;;;7.87;44.34
40918;BME280;26644;50.248;19.032;2024-01-30T12:50:26;99678.22;;;7.86;43.94
40918;BME280;26644;50.248;19.032;2024-01-30T12:53:30;99672.13;;;7.84;44.37
40918;BME280;26644;50.248;19.032;2024-01-30T12:56:38;99684.28;;;7.88;44.24
40918;BME280;26644;50.248;19.032;2024-01-30T12:59:42;99676.91;;;7.89;44.01
40918;BME280;26644;50.248;19.032;2024-01-30T13:02:48;99676.16;;;7.82;44.16
40918;BME280;26644;50.248;19.032;2024-01-30T13:05:52;99680.47;;;7.89;44.30
40918;BME280;26644;50.248;19.032;2024-01-30T13:08:57;99672.28;;;7.89;44.34
40918;BME280;26644;50.248;19.032;2024-01-30T13:12:04;99675.53;;;7.98;44.27
40918;BME280;26644;50.248;19.032;2024-01-30T13:15:10;99680.75;;;8.00;44.39
40918;BME280;26644;50.248;19.032;2024-01-30T13:18:14;99678.84;;;8.00;44.40
40918;BME280;26644;50.248;19.032;2024-01-30T13:21:19;99665.75;;;7.90;44.51
40918;BME280;26644;50.248;19.032;2024-01-30T13:24:23;99683.75;;;7.98;44.68
40918;BME280;26644;50.248;19.032;2024-01-30T13:27:31;99683.25;;;8.01;45.17
40918;BME280;26644;50.248;19.032;2024-01-30T13:30:36;99681.50;;;8.07;44.96
40918;BME280;26644;50.248;19.032;2024-01-30T13:33:41;99671.97;;;8.09;44.49
40918;BME280;26644;50.248;19.032;2024-01-30T13:36:46;99675.09;;;8.13;45.19
40918;BME280;26644;50.248;19.032;2024-01-30T13:39:51;99675.84;;;8.20;44.89
40918;BME280;26644;50.248;19.032;2024-01-30T13:42:57;99668.72;;;8.19;44.64
40918;BME280;26644;50.248;19.032;2024-01-30T13:46:03;99662.63;;;8.17;44.63
40918;BME280;26644;50.248;19.032;2024-01-30T13:49:07;99653.22;;;8.13;44.90
40918;BME280;26644;50.248;19.032;2024-01-30T13:52:13;99662.28;;;8.14;44.84
40918;BME280;26644;50.248;19.032;2024-01-30T13:55:17;99663.56;;;8.11;45.41
40918;BME280;26644;50.248;19.032;2024-01-30T13:58:25;99662.72;;;8.10;45.09
40918;BME280;26644;50.248;19.032;2024-01-30T14:01:29;99662.81;;;8.04;45.56
40918;BME280;26644;50.248;19.032;2024-01-30T14:04:34;99660.09;;;8.04;45.33
40918;BME280;26644;50.248;19.032;2024-01-30T14:07:38;99664.13;;;8.01;45.88
40918;BME280;26644;50.248;19.032;2024-01-30T14:10:44;99647.81;;;7.94;46.08
40918;BME280;26644;50.248;19.032;2024-01-30T14:13:51;99660.41;;;7.95;46.11
40918;BME280;26644;50.248;19.032;2024-01-30T14:16:56;99667.56;;;7.97;45.86
40918;BME280;26644;50.248;19.032;2024-01-30T14:20:00;99649.34;;;7.90;46.20
40918;BME280;26644;50.248;19.032;2024-01-30T14:23:06;99662.19;;;7.90;46.49
40918;BME280;26644;50.248;19.032;2024-01-30T14:26:10;99665.38;;;7.87;46.23
40918;BME280;26644;50.248;19.032;2024-01-30T14:29:18;99659.91;;;7.87;47.01
40918;BME280;26644;50.248;19.032;2024-01-30T14:32:22;99658.00;;;7.87;46.76
40918;BME280;26644;50.248;19.032;2024-01-30T14:35:28;99657.78;;;7.89;47.01
40918;BME280;26644;50.248;19.032;2024-01-30T14:38:32;99657.16;;;7.87;47.01
40918;BME280;26644;50.248;19.032;2024-01-30T14:41:37;99658.69;;;7.83;47.45
40918;BME280;26644;50.248;19.032;2024-01-30T14:44:44;99645.50;;;7.80;47.50
40918;BME280;26644;50.248;19.032;2024-01-30T14:47:49;99647.13;;;7.69;47.38
40918;BME280;26644;50.248;19.032;2024-01-30T14:50:53;99648.66;;;7.65;47.72
40918;BME280;26644;50.248;19.032;2024-01-30T14:53:59;99648.94;;;7.56;48.13
40918;BME280;26644;50.248;19.032;2024-01-30T14:57:04;99645.25;;;7.51;47.91
40918;BME280;26644;50.248;19.032;2024-01-30T15:00:14;99650.56;;;7.45;48.38
40918;BME280;26644;50.248;19.032;2024-01-30T15:03:21;99637.44;;;7.36;48.50
40918;BME280;26644;50.248;19.032;2024-01-30T15:06:26;99644.28;;;7.26;48.75
40918;BME280;26644;50.248;19.032;2024-01-30T15:09:30;99643.28;;;7.21;48.58
40918;BME280;26644;50.248;19.032;2024-01-30T15:12:35;99639.31;;;7.17;48.78
40918;BME280;26644;50.248;19.032;2024-01-30T15:15:42;99645.47;;;7.12;48.75
40918;BME280;26644;50.248;19.032;2024-01-30T15:18:47;99648.50;;;7.04;48.95
40918;BME280;26644;50.248;19.032;2024-01-30T15:21:51;99647.28;;;7.00;49.22
40918;BME280;26644;50.248;19.032;2024-01-30T15:24:56;99641.66;;;6.94;49.45
40918;BME280;26644;50.248;19.032;2024-01-30T15:28:01;99639.44;;;6.85;49.21
40918;BME280;26644;50.248;19.032;2024-01-30T15:31:08;99638.91;;;6.76;49.57
40918;BME280;26644;50.248;19.032;2024-01-30T15:34:12;99640.25;;;6.67;49.97
40918;BME280;26644;50.248;19.032;2024-01-30T15:37:17;99642.41;;;6.58;50.19
40918;BME280;26644;50.248;19.032;2024-01-30T15:40:21;99636.63;;;6.48;50.51
40918;BME280;26644;50.248;19.032;2024-01-30T15:43:26;99638.13;;;6.43;50.64
40918;BME280;26644;50.248;19.032;2024-01-30T15:46:36;99637.94;;;6.38;50.69
40918;BME280;26644;50.248;19.032;2024-01-30T15:49:41;99644.53;;;6.31;50.66
40918;BME280;26644;50.248;19.032;2024-01-30T15:52:45;99644.38;;;6.25;50.81
40918;BME280;26644;50.248;19.032;2024-01-30T15:55:50;99644.41;;;6.19;51.41
40918;BME280;26644;50.248;19.032;2024-01-30T15:58:54;99640.88;;;6.11;51.43
40918;BME280;26644;50.248;19.032;2024-01-30T16:02:02;99644.28;;;6.07;51.19
40918;BME280;26644;50.248;19.032;2024-01-30T16:05:07;99649.56;;;6.02;51.46
40918;BME280;26644;50.248;19.032;2024-01-30T16:08:12;99646.66;;;5.97;51.45
40918;BME280;26644;50.248;19.032;2024-01-30T16:11:17;99654.66;;;5.91;51.50
40918;BME280;26644;50.248;19.032;2024-01-30T16:14:22;99641.06;;;5.85;51.85
40918;BME280;26644;50.248;19.032;2024-01-30T16:17:28;99646.97;;;5.82;51.71
40918;BME280;26644;50.248;19.032;2024-01-30T16:20:34;99634.41;;;5.74;51.82
40918;BME280;26644;50.248;19.032;2024-01-30T16:23:39;99643.88;;;5.71;52.05